createdAt,value
2016-09-17T00:00:25.063Z,14.41
2016-09-17T00:01:23.938Z,14.37
2016-09-17T00:02:23.939Z,14.45
2016-09-17T00:03:24.169Z,14.47
2016-09-17T00:04:24.171Z,14.47
2016-09-17T00:05:23.962Z,14.59
2016-09-17T00:06:24.254Z,14.5
2016-09-17T00:07:23.056Z,14.48
2016-09-17T00:08:24.121Z,14.55
2016-09-17T00:09:23.716Z,14.55
2016-09-17T00:10:24.062Z,14.45
2016-09-17T00:11:24.916Z,14.51
2016-09-17T00:12:24.234Z,14.48
2016-09-17T00:13:24.379Z,14.5
2016-09-17T00:14:23.873Z,14.35
2016-09-17T00:15:24.172Z,14.32
2016-09-17T00:16:25.801Z,14.36
2016-09-17T00:17:24.008Z,14.35
2016-09-17T00:18:24.635Z,14.23
2016-09-17T00:19:25.564Z,14.33
2016-09-17T00:20:24.497Z,14.26
2016-09-17T00:21:25.011Z,14.15
2016-09-17T00:22:24.600Z,14.1
2016-09-17T00:23:25.172Z,14.22
2016-09-17T00:24:25.882Z,14.15
2016-09-17T00:25:25.331Z,14.15
2016-09-17T00:26:24.520Z,14.25
2016-09-17T00:27:25.497Z,14.2
2016-09-17T00:28:23.713Z,14.2
2016-09-17T00:29:24.502Z,14.17
2016-09-17T00:30:25.783Z,14.14
2016-09-17T00:31:26.899Z,14.18
2016-09-17T00:32:26.387Z,14.17
2016-09-17T00:33:24.103Z,14.26
2016-09-17T00:34:25.461Z,14.14
2016-09-17T00:35:24.827Z,14.28
2016-09-17T00:36:24.776Z,14.18
2016-09-17T00:37:25.381Z,14.29
2016-09-17T00:38:24.540Z,14.29
2016-09-17T00:39:24.402Z,14.18
2016-09-17T00:40:24.992Z,14.26
2016-09-17T00:41:25.570Z,14.17
2016-09-17T00:42:25.555Z,14.3
2016-09-17T00:43:24.280Z,14.15
2016-09-17T00:44:24.799Z,14.29
2016-09-17T00:45:24.294Z,14.2
2016-09-17T00:46:25.285Z,14.23
2016-09-17T00:47:24.856Z,14.07
2016-09-17T00:48:26.324Z,14.26
2016-09-17T00:49:25.437Z,14.17
2016-09-17T00:50:26.277Z,14.18
2016-09-17T00:51:24.171Z,14.12
2016-09-17T00:52:25.049Z,14.12
2016-09-17T00:53:25.574Z,14.2
2016-09-17T00:54:25.996Z,14.14
2016-09-17T00:55:24.516Z,14.17
2016-09-17T00:56:25.343Z,14.26
2016-09-17T00:57:25.842Z,14.18
2016-09-17T00:58:24.721Z,14.25
2016-09-17T00:59:25.181Z,14.07
2016-09-17T01:00:25.044Z,14.14
2016-09-17T01:01:25.419Z,14.1
2016-09-17T01:02:24.648Z,14.15
2016-09-17T01:03:25.694Z,14.05
2016-09-17T01:04:25.414Z,13.97
2016-09-17T01:05:25.097Z,13.9
2016-09-17T01:06:26.069Z,14
2016-09-17T01:07:26.034Z,13.97
2016-09-17T01:08:27.509Z,14.03
2016-09-17T01:09:25.181Z,13.92
2016-09-17T01:10:25.388Z,13.95
2016-09-17T01:11:25.458Z,14.18
2016-09-17T01:12:25.853Z,14.17
2016-09-17T01:13:24.697Z,14.18
2016-09-17T01:14:25.051Z,14.28
2016-09-17T01:15:25.230Z,14.23
2016-09-17T01:16:25.404Z,14.23
2016-09-17T01:17:24.937Z,14.26
2016-09-17T01:18:24.975Z,14.15
2016-09-17T01:19:24.963Z,14.32
2016-09-17T01:20:25.518Z,14.3
2016-09-17T01:21:27.736Z,14.2
2016-09-17T01:22:26.351Z,14.25
2016-09-17T01:23:26.610Z,14.17
2016-09-17T01:24:25.085Z,14.23
2016-09-17T01:25:27.783Z,14.25
2016-09-17T01:26:24.921Z,14.15
2016-09-17T01:27:25.071Z,14.28
2016-09-17T01:28:27.254Z,14.22
2016-09-17T01:29:27.461Z,14.1
2016-09-17T01:30:27.240Z,14.23
2016-09-17T01:31:25.663Z,14.23
2016-09-17T01:32:26.366Z,14.08
2016-09-17T01:33:25.675Z,14.1
2016-09-17T01:34:25.637Z,14.18
2016-09-17T01:35:28.491Z,14.15
2016-09-17T01:36:26.356Z,14.08
2016-09-17T01:37:26.938Z,14.12
2016-09-17T01:38:26.184Z,14.2
2016-09-17T01:39:25.494Z,14.14
2016-09-17T01:40:25.417Z,14.11
2016-09-17T01:41:25.521Z,14.15
2016-09-17T01:42:26.137Z,14.18
2016-09-17T01:43:26.015Z,14.1
2016-09-17T01:44:26.936Z,14.22
2016-09-17T01:45:26.970Z,14.14
2016-09-17T01:46:26.381Z,14.26
2016-09-17T01:47:26.564Z,14.14
2016-09-17T01:48:25.478Z,14.1
2016-09-17T01:49:25.519Z,14.1
2016-09-17T01:50:25.444Z,14.11
2016-09-17T01:51:26.420Z,14.03
2016-09-17T01:52:26.269Z,14.2
2016-09-17T01:53:30.736Z,14
2016-09-17T01:54:25.829Z,14.07
2016-09-17T01:55:27.381Z,14.04
2016-09-17T01:56:26.822Z,13.96
2016-09-17T01:57:26.853Z,14.07
2016-09-17T01:58:28.657Z,14.08
2016-09-17T01:59:26.989Z,14.15
2016-09-17T02:00:26.478Z,13.93
2016-09-17T02:01:27.529Z,13.99
2016-09-17T02:02:26.423Z,14.05
2016-09-17T02:03:27.242Z,13.95
2016-09-17T02:04:25.894Z,13.89
2016-09-17T02:05:27.784Z,13.87
2016-09-17T02:06:28.119Z,13.9
2016-09-17T02:07:26.458Z,13.95
2016-09-17T02:08:28.504Z,13.89
2016-09-17T02:09:26.306Z,13.87
2016-09-17T02:10:26.961Z,13.89
2016-09-17T02:11:25.248Z,14
2016-09-17T02:12:25.603Z,14.08
2016-09-17T02:13:27.028Z,14.14
2016-09-17T02:14:27.265Z,13.99
2016-09-17T02:15:26.544Z,14.15
2016-09-17T02:16:26.801Z,14.25
2016-09-17T02:17:26.106Z,14.17
2016-09-17T02:18:26.914Z,14.12
2016-09-17T02:19:26.100Z,14.1
2016-09-17T02:20:26.205Z,14.14
2016-09-17T02:21:26.671Z,14.15
2016-09-17T02:22:27.006Z,14.25
2016-09-17T02:23:26.659Z,14.18
2016-09-17T02:24:27.024Z,14.25
2016-09-17T02:25:26.963Z,14.25
2016-09-17T02:26:27.684Z,14.18
2016-09-17T02:27:26.366Z,14.25
2016-09-17T02:28:27.248Z,14.26
2016-09-17T02:29:26.406Z,14.07
2016-09-17T02:30:27.125Z,14.18
2016-09-17T02:31:26.387Z,14.23
2016-09-17T02:32:27.186Z,14.18
2016-09-17T02:33:26.390Z,14.22
2016-09-17T02:34:29.186Z,14.2
2016-09-17T02:35:26.482Z,14.2
2016-09-17T02:36:27.262Z,14.23
2016-09-17T02:37:27.336Z,14.2
2016-09-17T02:38:27.010Z,14.26
2016-09-17T02:39:26.103Z,14.17
2016-09-17T02:40:27.332Z,14.23
2016-09-17T02:41:27.489Z,14.29
2016-09-17T02:42:27.488Z,14.28
2016-09-17T02:43:28.231Z,14.28
2016-09-17T02:44:27.034Z,14.26
2016-09-17T02:45:27.187Z,14.26
2016-09-17T02:46:27.817Z,14.12
2016-09-17T02:47:29.536Z,14.3
2016-09-17T02:48:26.934Z,14.26
2016-09-17T02:49:26.640Z,14.23
2016-09-17T02:50:26.733Z,14.26
2016-09-17T02:51:27.153Z,14.29
2016-09-17T02:52:27.810Z,14.3
2016-09-17T02:53:27.641Z,14.25
2016-09-17T02:54:27.546Z,14.29
2016-09-17T02:55:27.680Z,14.15
2016-09-17T02:56:27.388Z,14.2
2016-09-17T02:57:28.021Z,14.18
2016-09-17T02:58:28.829Z,14.23
2016-09-17T02:59:27.900Z,14.05
2016-09-17T03:00:27.052Z,14.11
2016-09-17T03:01:27.036Z,14.18
2016-09-17T03:02:27.480Z,14.12
2016-09-17T03:03:28.907Z,14.23
2016-09-17T03:04:28.804Z,14.14
2016-09-17T03:05:26.979Z,14.14
2016-09-17T03:06:28.020Z,14.12
2016-09-17T03:07:28.217Z,14.15
2016-09-17T03:08:28.058Z,14.18
2016-09-17T03:09:28.406Z,14.08
2016-09-17T03:10:28.079Z,14.18
2016-09-17T03:11:27.896Z,14.2
2016-09-17T03:12:28.861Z,14.25
2016-09-17T03:13:28.770Z,14.15
2016-09-17T03:14:27.337Z,14.18
2016-09-17T03:15:28.963Z,14.25
2016-09-17T03:16:27.835Z,14.18
2016-09-17T03:17:29.625Z,14.25
2016-09-17T03:18:27.933Z,14.08
2016-09-17T03:19:27.585Z,14.26
2016-09-17T03:20:27.814Z,14.23
2016-09-17T03:21:27.427Z,14.14
2016-09-17T03:22:27.833Z,14.26
2016-09-17T03:23:27.841Z,14.2
2016-09-17T03:24:27.880Z,14.11
2016-09-17T03:25:29.385Z,14.15
2016-09-17T03:26:27.599Z,14.2
2016-09-17T03:27:27.408Z,14.08
2016-09-17T03:28:30.012Z,14.14
2016-09-17T03:29:29.278Z,14.15
2016-09-17T03:30:28.233Z,14.1
2016-09-17T03:31:29.048Z,14.15
2016-09-17T03:32:29.116Z,14.1
2016-09-17T03:33:29.377Z,14.1
2016-09-17T03:34:28.335Z,14.1
2016-09-17T03:35:29.341Z,14.11
2016-09-17T03:36:29.961Z,14.11
2016-09-17T03:37:28.661Z,14.15
2016-09-17T03:38:29.077Z,14.04
2016-09-17T03:39:27.816Z,14.11
2016-09-17T03:40:28.176Z,14.15
2016-09-17T03:41:29.385Z,14.17
2016-09-17T03:42:28.167Z,14.08
2016-09-17T03:43:28.472Z,14.14
2016-09-17T03:44:28.143Z,14.03
2016-09-17T03:45:29.560Z,14.1
2016-09-17T03:46:27.355Z,14.05
2016-09-17T03:47:29.157Z,14.2
2016-09-17T03:48:29.689Z,14.07
2016-09-17T03:49:28.063Z,14.14
2016-09-17T03:50:28.326Z,13.99
2016-09-17T03:51:29.372Z,14.11
2016-09-17T03:52:28.788Z,14.12
2016-09-17T03:53:27.523Z,14.11
2016-09-17T03:54:28.313Z,13.99
2016-09-17T03:55:30.050Z,14.08
2016-09-17T03:56:29.580Z,14.1
2016-09-17T03:57:29.093Z,14
2016-09-17T03:58:29.340Z,14.15
2016-09-17T03:59:30.057Z,14.11
2016-09-17T04:00:30.053Z,14.18
2016-09-17T04:01:28.193Z,14.11
2016-09-17T04:02:29.017Z,14.15
2016-09-17T04:03:29.309Z,14.07
2016-09-17T04:04:29.786Z,13.93
2016-09-17T04:05:27.673Z,13.99
2016-09-17T04:06:29.441Z,14.08
2016-09-17T04:07:29.659Z,14.11
2016-09-17T04:08:30.308Z,13.99
2016-09-17T04:09:30.342Z,14.05
2016-09-17T04:10:29.517Z,14.08
2016-09-17T04:11:29.164Z,13.99
2016-09-17T04:12:30.313Z,14.03
2016-09-17T04:13:28.233Z,13.97
2016-09-17T04:14:29.665Z,14.03
2016-09-17T04:15:28.276Z,13.93
2016-09-17T04:16:30.123Z,14
2016-09-17T04:17:28.813Z,14
2016-09-17T04:18:29.077Z,13.9
2016-09-17T04:19:28.559Z,14.08
2016-09-17T04:20:28.659Z,14
2016-09-17T04:21:30.134Z,13.89
2016-09-17T04:22:30.336Z,13.77
2016-09-17T04:23:29.418Z,13.74
2016-09-17T04:24:28.015Z,13.78
2016-09-17T04:25:30.782Z,13.78
2016-09-17T04:26:30.192Z,13.78
2016-09-17T04:27:29.180Z,13.81
2016-09-17T04:28:29.623Z,13.78
2016-09-17T04:29:30.504Z,13.71
2016-09-17T04:30:28.444Z,13.72
2016-09-17T04:31:29.918Z,13.71
2016-09-17T04:32:29.429Z,13.65
2016-09-17T04:33:30.486Z,13.71
2016-09-17T04:34:29.117Z,13.65
2016-09-17T04:35:28.697Z,13.67
2016-09-17T04:36:30.636Z,13.6
2016-09-17T04:37:31.244Z,13.56
2016-09-17T04:38:29.826Z,13.53
2016-09-17T04:39:30.198Z,13.52
2016-09-17T04:40:30.220Z,13.49
2016-09-17T04:41:31.303Z,13.53
2016-09-17T04:42:28.968Z,13.46
2016-09-17T04:43:29.605Z,13.52
2016-09-17T04:44:29.415Z,13.53
2016-09-17T04:45:30.645Z,13.57
2016-09-17T04:46:29.942Z,13.65
2016-09-17T04:47:29.630Z,13.62
2016-09-17T04:48:29.521Z,13.62
2016-09-17T04:49:31.351Z,13.65
2016-09-17T04:50:30.516Z,13.7
2016-09-17T04:51:30.428Z,13.62
2016-09-17T04:52:30.296Z,13.65
2016-09-17T04:53:30.047Z,13.62
2016-09-17T04:54:30.938Z,13.63
2016-09-17T04:55:30.183Z,13.57
2016-09-17T04:56:29.816Z,13.56
2016-09-17T04:57:29.567Z,13.59
2016-09-17T04:58:29.971Z,13.54
2016-09-17T04:59:31.634Z,13.53
2016-09-17T05:00:30.512Z,13.5
2016-09-17T05:01:30.598Z,13.56
2016-09-17T05:02:29.757Z,13.53
2016-09-17T05:03:30.355Z,13.52
2016-09-17T05:04:30.727Z,13.53
2016-09-17T05:05:29.395Z,13.56
2016-09-17T05:06:30.162Z,13.6
2016-09-17T05:07:30.695Z,13.57
2016-09-17T05:08:30.772Z,13.6
2016-09-17T05:09:29.965Z,13.54
2016-09-17T05:10:30.717Z,13.68
2016-09-17T05:11:30.337Z,13.62
2016-09-17T05:12:30.668Z,13.6
2016-09-17T05:13:30.256Z,13.6
2016-09-17T05:14:30.547Z,13.63
2016-09-17T05:15:30.391Z,13.63
2016-09-17T05:16:30.386Z,13.7
2016-09-17T05:17:30.380Z,13.71
2016-09-17T05:18:31.250Z,13.67
2016-09-17T05:19:30.600Z,13.71
2016-09-17T05:20:30.439Z,13.75
2016-09-17T05:21:30.119Z,13.77
2016-09-17T05:22:31.688Z,13.71
2016-09-17T05:23:31.632Z,13.77
2016-09-17T05:24:31.434Z,13.81
2016-09-17T05:25:30.470Z,13.89
2016-09-17T05:26:31.513Z,13.9
2016-09-17T05:27:30.265Z,13.89
2016-09-17T05:28:30.688Z,13.92
2016-09-17T05:29:31.231Z,13.92
2016-09-17T05:30:30.914Z,13.95
2016-09-17T05:31:31.412Z,13.89
2016-09-17T05:32:32.958Z,14.03
2016-09-17T05:33:31.200Z,13.99
2016-09-17T05:34:29.362Z,14.07
2016-09-17T05:35:30.381Z,13.99
2016-09-17T05:36:30.256Z,14.11
2016-09-17T05:37:30.840Z,14.04
2016-09-17T05:38:30.634Z,14.11
2016-09-17T05:39:30.567Z,14.05
2016-09-17T05:40:30.580Z,14.14
2016-09-17T05:41:32.582Z,14.11
2016-09-17T05:42:29.805Z,14.12
2016-09-17T05:43:30.605Z,14.17
2016-09-17T05:44:30.065Z,14.14
2016-09-17T05:45:31.668Z,14.2
2016-09-17T05:46:32.959Z,14.23
2016-09-17T05:47:31.887Z,14.26
2016-09-17T05:48:30.441Z,14.29
2016-09-17T05:49:32.515Z,14.26
2016-09-17T05:50:30.362Z,14.3
2016-09-17T05:51:31.421Z,14.4
2016-09-17T05:52:31.088Z,14.35
2016-09-17T05:53:32.485Z,14.48
2016-09-17T05:54:32.223Z,14.51
2016-09-17T05:55:31.996Z,14.51
2016-09-17T05:56:31.041Z,14.54
2016-09-17T05:57:31.591Z,14.45
2016-09-17T05:58:32.740Z,14.53
2016-09-17T05:59:31.160Z,14.55
2016-09-17T06:00:30.770Z,14.72
2016-09-17T06:01:30.772Z,14.6
2016-09-17T06:02:32.606Z,14.73
2016-09-17T06:03:30.930Z,14.7
2016-09-17T06:04:31.525Z,14.79
2016-09-17T06:05:31.310Z,14.85
2016-09-17T06:06:30.804Z,14.89
2016-09-17T06:07:32.912Z,14.94
2016-09-17T06:08:31.874Z,14.85
2016-09-17T06:09:31.477Z,14.91
2016-09-17T06:10:33.334Z,14.85
2016-09-17T06:11:30.751Z,14.97
2016-09-17T06:12:31.830Z,15.03
2016-09-17T06:13:31.715Z,15.06
2016-09-17T06:14:31.525Z,15.07
2016-09-17T06:15:32.974Z,15.06
2016-09-17T06:16:32.882Z,15.14
2016-09-17T06:17:31.770Z,15.15
2016-09-17T06:18:31.588Z,15.1
2016-09-17T06:19:30.618Z,15.14
2016-09-17T06:20:30.662Z,15.19
2016-09-17T06:21:32.386Z,15.1
2016-09-17T06:22:31.753Z,15.25
2016-09-17T06:23:31.715Z,15.18
2016-09-17T06:24:31.581Z,15.21
2016-09-17T06:25:32.251Z,15.24
2016-09-17T06:26:34.413Z,15.27
2016-09-17T06:27:31.136Z,15.25
2016-09-17T06:28:31.655Z,15.35
2016-09-17T06:29:32.515Z,15.22
2016-09-17T06:30:31.421Z,15.27
2016-09-17T06:31:32.226Z,15.28
2016-09-17T06:32:31.011Z,15.29
2016-09-17T06:33:32.823Z,15.37
2016-09-17T06:34:31.853Z,15.4
2016-09-17T06:35:32.449Z,15.43
2016-09-17T06:36:31.174Z,15.43
2016-09-17T06:37:32.874Z,15.43
2016-09-17T06:38:31.874Z,15.4
2016-09-17T06:39:31.786Z,15.37
2016-09-17T06:40:31.883Z,15.43
2016-09-17T06:41:32.536Z,15.43
2016-09-17T06:42:31.641Z,15.44
2016-09-17T06:43:31.786Z,15.42
2016-09-17T06:44:32.398Z,15.44
2016-09-17T06:45:31.071Z,15.52
2016-09-17T06:46:32.828Z,15.42
2016-09-17T06:47:31.978Z,15.43
2016-09-17T06:48:33.576Z,15.42
2016-09-17T06:49:33.129Z,15.44
2016-09-17T06:50:33.072Z,15.49
2016-09-17T06:51:31.834Z,15.49
2016-09-17T06:52:33.077Z,15.42
2016-09-17T06:53:33.186Z,15.52
2016-09-17T06:54:32.217Z,15.49
2016-09-17T06:55:32.299Z,15.57
2016-09-17T06:56:32.113Z,15.62
2016-09-17T06:57:31.758Z,15.58
2016-09-17T06:58:32.148Z,15.59
2016-09-17T06:59:31.650Z,15.64
2016-09-17T07:00:32.973Z,15.67
2016-09-17T07:01:32.602Z,15.68
2016-09-17T07:02:32.399Z,15.72
2016-09-17T07:03:32.384Z,15.67
2016-09-17T07:04:32.223Z,15.76
2016-09-17T07:05:32.051Z,15.72
2016-09-17T07:06:32.901Z,15.68
2016-09-17T07:07:32.144Z,15.72
2016-09-17T07:08:33.282Z,15.86
2016-09-17T07:09:32.673Z,15.92
2016-09-17T07:10:32.560Z,16.02
2016-09-17T07:11:33.241Z,16.02
2016-09-17T07:12:32.952Z,16.05
2016-09-17T07:13:33.017Z,16.09
2016-09-17T07:14:33.413Z,16.32
2016-09-17T07:15:33.673Z,16.29
2016-09-17T07:16:32.846Z,16.36
2016-09-17T07:17:32.749Z,16.39
2016-09-17T07:18:33.249Z,16.42
2016-09-17T07:19:33.209Z,16.49
2016-09-17T07:20:32.928Z,16.47
2016-09-17T07:21:34.844Z,16.6
2016-09-17T07:22:33.201Z,16.66
2016-09-17T07:23:31.939Z,16.74
2016-09-17T07:24:33.464Z,16.68
2016-09-17T07:25:33.704Z,16.84
2016-09-17T07:26:33.713Z,16.79
2016-09-17T07:27:32.862Z,16.87
2016-09-17T07:28:33.674Z,16.74
2016-09-17T07:29:33.807Z,16.75
2016-09-17T07:30:32.813Z,16.78
2016-09-17T07:31:33.914Z,16.76
2016-09-17T07:32:34.122Z,16.83
2016-09-17T07:33:33.789Z,16.68
2016-09-17T07:34:34.152Z,16.69
2016-09-17T07:35:33.453Z,16.66
2016-09-17T07:36:32.405Z,16.71
2016-09-17T07:37:33.770Z,16.69
2016-09-17T07:38:33.038Z,16.68
2016-09-17T07:39:32.816Z,16.68
2016-09-17T07:40:33.760Z,16.71
2016-09-17T07:41:32.002Z,16.64
2016-09-17T07:42:34.505Z,16.56
2016-09-17T07:43:34.557Z,16.56
2016-09-17T07:44:33.601Z,16.46
2016-09-17T07:45:32.985Z,16.43
2016-09-17T07:46:32.325Z,16.46
2016-09-17T07:47:34.373Z,16.5
2016-09-17T07:48:32.778Z,16.49
2016-09-17T07:49:34.389Z,16.51
2016-09-17T07:50:34.778Z,16.6
2016-09-17T07:51:32.708Z,16.71
2016-09-17T07:52:34.000Z,16.65
2016-09-17T07:53:34.104Z,16.69
2016-09-17T07:54:35.415Z,16.72
2016-09-17T07:55:33.895Z,16.78
2016-09-17T07:56:33.071Z,16.79
2016-09-17T07:57:32.731Z,16.83
2016-09-17T07:58:34.513Z,16.86
2016-09-17T07:59:35.361Z,16.86
2016-09-17T08:00:33.203Z,16.78
2016-09-17T08:01:33.161Z,16.83
2016-09-17T08:02:33.720Z,16.89
2016-09-17T08:03:32.859Z,16.87
2016-09-17T08:04:34.124Z,17.04
2016-09-17T08:05:36.366Z,16.99
2016-09-17T08:06:33.877Z,17.05
2016-09-17T08:07:35.747Z,17.11
2016-09-17T08:08:34.559Z,17.14
2016-09-17T08:09:36.751Z,17.14
2016-09-17T08:10:34.514Z,17.16
2016-09-17T08:11:34.263Z,17.22
2016-09-17T08:12:34.422Z,17.11
2016-09-17T08:13:34.193Z,17.2
2016-09-17T08:14:34.099Z,17.23
2016-09-17T08:15:37.159Z,17.09
2016-09-17T08:16:35.657Z,17.12
2016-09-17T08:17:36.149Z,17.22
2016-09-17T08:18:34.519Z,17.24
2016-09-17T08:19:35.281Z,17.39
2016-09-17T08:20:34.633Z,17.38
2016-09-17T08:21:34.622Z,17.33
2016-09-17T08:22:34.353Z,17.39
2016-09-17T08:23:35.694Z,17.41
2016-09-17T08:24:35.501Z,17.39
2016-09-17T08:25:34.198Z,17.45
2016-09-17T08:26:34.365Z,17.51
2016-09-17T08:27:35.998Z,17.52
2016-09-17T08:28:36.011Z,17.56
2016-09-17T08:29:35.437Z,17.63
2016-09-17T08:30:34.674Z,17.74
2016-09-17T08:31:33.599Z,17.83
2016-09-17T08:32:35.159Z,17.87
2016-09-17T08:33:36.517Z,17.89
2016-09-17T08:34:35.316Z,17.86
2016-09-17T08:35:36.513Z,17.86
2016-09-17T08:36:35.710Z,17.94
2016-09-17T08:37:35.055Z,18.01
2016-09-17T08:38:35.747Z,17.98
2016-09-17T08:39:35.264Z,17.86
2016-09-17T08:40:35.626Z,17.95
2016-09-17T08:41:36.729Z,18.01
2016-09-17T08:42:36.113Z,17.86
2016-09-17T08:43:35.774Z,17.86
2016-09-17T08:44:35.443Z,17.78
2016-09-17T08:45:36.337Z,17.76
2016-09-17T08:46:35.347Z,17.78
2016-09-17T08:47:38.978Z,17.74
2016-09-17T08:48:36.308Z,17.76
2016-09-17T08:49:36.481Z,17.72
2016-09-17T08:50:36.107Z,17.7
2016-09-17T08:51:35.175Z,17.72
2016-09-17T08:52:34.966Z,17.65
2016-09-17T08:53:35.901Z,17.63
2016-09-17T08:54:36.309Z,17.76
2016-09-17T08:55:36.307Z,17.7
2016-09-17T08:56:35.934Z,17.52
2016-09-17T08:57:35.913Z,17.7
2016-09-17T08:58:37.052Z,17.68
2016-09-17T08:59:34.777Z,17.74
2016-09-17T09:00:34.437Z,17.7
2016-09-17T09:01:35.349Z,17.78
2016-09-17T09:02:35.293Z,17.9
2016-09-17T09:03:35.464Z,17.83
2016-09-17T09:04:35.855Z,17.82
2016-09-17T09:05:34.966Z,17.86
2016-09-17T09:06:35.322Z,17.86
2016-09-17T09:07:35.951Z,17.76
2016-09-17T09:08:36.459Z,17.7
2016-09-17T09:09:36.486Z,17.76
2016-09-17T09:10:35.929Z,17.74
2016-09-17T09:11:35.801Z,17.82
2016-09-17T09:12:36.214Z,17.74
2016-09-17T09:13:38.338Z,17.72
2016-09-17T09:14:36.270Z,17.83
2016-09-17T09:15:36.658Z,17.68
2016-09-17T09:16:36.343Z,17.65
2016-09-17T09:17:36.085Z,17.8
2016-09-17T09:18:35.707Z,17.74
2016-09-17T09:19:36.758Z,17.78
2016-09-17T09:20:36.301Z,17.68
2016-09-17T09:21:37.048Z,17.68
2016-09-17T09:22:36.398Z,17.68
2016-09-17T09:23:36.866Z,17.67
2016-09-17T09:24:36.422Z,17.67
2016-09-17T09:25:37.921Z,17.65
2016-09-17T09:26:36.593Z,17.72
2016-09-17T09:27:36.398Z,17.79
2016-09-17T09:28:35.892Z,17.67
2016-09-17T09:29:36.194Z,17.64
2016-09-17T09:30:38.171Z,17.7
2016-09-17T09:31:36.752Z,17.65
2016-09-17T09:32:35.458Z,17.67
2016-09-17T09:33:37.152Z,17.65
2016-09-17T09:34:36.877Z,17.65
2016-09-17T09:35:36.561Z,17.6
2016-09-17T09:36:36.947Z,17.51
2016-09-17T09:37:36.491Z,17.65
2016-09-17T09:38:36.076Z,17.59
2016-09-17T09:39:36.832Z,17.48
2016-09-17T09:40:36.861Z,17.57
2016-09-17T09:41:37.355Z,17.46
2016-09-17T09:42:40.030Z,17.41
2016-09-17T09:43:36.070Z,17.45
2016-09-17T09:44:36.968Z,17.41
2016-09-17T09:45:36.818Z,17.46
2016-09-17T09:46:37.219Z,17.48
2016-09-17T09:47:38.577Z,17.48
2016-09-17T09:48:36.788Z,17.46
2016-09-17T09:49:38.571Z,17.48
2016-09-17T09:50:36.300Z,17.52
2016-09-17T09:51:37.084Z,17.51
2016-09-17T09:52:36.653Z,17.52
2016-09-17T09:53:36.328Z,17.49
2016-09-17T09:54:37.052Z,17.48
2016-09-17T09:55:36.206Z,17.51
2016-09-17T09:56:36.276Z,17.54
2016-09-17T09:57:35.707Z,17.54
2016-09-17T09:58:36.259Z,17.6
2016-09-17T09:59:37.155Z,17.54
2016-09-17T10:00:35.663Z,17.7
2016-09-17T10:01:37.798Z,17.6
2016-09-17T10:02:37.266Z,17.56
2016-09-17T10:03:36.496Z,17.68
2016-09-17T10:04:37.009Z,17.76
2016-09-17T10:05:36.475Z,17.8
2016-09-17T10:06:36.804Z,17.92
2016-09-17T10:07:36.478Z,18
2016-09-17T10:08:40.368Z,18
2016-09-17T10:09:37.114Z,18.1
2016-09-17T10:10:38.746Z,18.07
2016-09-17T10:11:37.478Z,18.05
2016-09-17T10:12:36.895Z,18.08
2016-09-17T10:13:38.404Z,18.04
2016-09-17T10:14:36.614Z,18
2016-09-17T10:15:38.077Z,17.82
2016-09-17T10:16:36.455Z,17.95
2016-09-17T10:17:37.664Z,17.86
2016-09-17T10:18:37.026Z,17.83
2016-09-17T10:19:37.072Z,17.86
2016-09-17T10:20:39.211Z,17.83
2016-09-17T10:21:37.501Z,17.86
2016-09-17T10:22:38.505Z,17.87
2016-09-17T10:23:37.307Z,17.85
2016-09-17T10:24:37.399Z,17.76
2016-09-17T10:25:37.203Z,17.89
2016-09-17T10:26:37.328Z,17.78
2016-09-17T10:27:37.317Z,17.8
2016-09-17T10:28:36.358Z,17.8
2016-09-17T10:29:37.450Z,17.7
2016-09-17T10:30:37.524Z,17.72
2016-09-17T10:31:36.678Z,17.59
2016-09-17T10:32:38.710Z,17.52
2016-09-17T10:33:38.170Z,17.46
2016-09-17T10:34:38.073Z,17.34
2016-09-17T10:35:37.370Z,17.29
2016-09-17T10:36:37.895Z,17.29
2016-09-17T10:37:36.892Z,17.22
2016-09-17T10:38:37.445Z,17.24
2016-09-17T10:39:40.826Z,17.19
2016-09-17T10:40:37.332Z,17.19
2016-09-17T10:41:38.355Z,17.14
2016-09-17T10:42:38.644Z,17.19
2016-09-17T10:43:38.170Z,17.11
2016-09-17T10:44:37.514Z,17.09
2016-09-17T10:45:37.668Z,17.09
2016-09-17T10:46:37.037Z,16.94
2016-09-17T10:47:36.643Z,17.05
2016-09-17T10:48:38.331Z,17.02
2016-09-17T10:49:38.747Z,16.96
2016-09-17T10:50:38.397Z,16.94
2016-09-17T10:51:38.771Z,16.89
2016-09-17T10:52:37.316Z,16.99
2016-09-17T10:53:38.904Z,16.91
2016-09-17T10:54:37.676Z,16.93
2016-09-17T10:55:38.795Z,16.86
2016-09-17T10:56:37.126Z,16.87
2016-09-17T10:57:40.021Z,16.9
2016-09-17T10:58:41.986Z,16.89
2016-09-17T10:59:38.071Z,16.9
2016-09-17T11:00:37.391Z,16.91
2016-09-17T11:01:37.846Z,16.86
2016-09-17T11:02:38.023Z,16.79
2016-09-17T11:03:37.586Z,16.74
2016-09-17T11:04:39.325Z,16.65
2016-09-17T11:05:38.934Z,16.72
2016-09-17T11:06:39.418Z,16.68
2016-09-17T11:07:38.527Z,16.54
2016-09-17T11:08:38.714Z,16.53
2016-09-17T11:09:38.053Z,16.5
2016-09-17T11:10:38.261Z,16.51
2016-09-17T11:11:40.118Z,16.43
2016-09-17T11:12:38.014Z,16.46
2016-09-17T11:13:38.427Z,16.46
2016-09-17T11:14:38.572Z,16.35
2016-09-17T11:15:39.458Z,16.43
2016-09-17T11:16:39.133Z,16.47
2016-09-17T11:17:37.987Z,16.49
2016-09-17T11:18:39.393Z,16.33
2016-09-17T11:19:39.307Z,16.39
2016-09-17T11:20:40.287Z,16.43
2016-09-17T11:21:39.899Z,16.35
2016-09-17T11:22:38.267Z,16.43
2016-09-17T11:23:38.992Z,16.43
2016-09-17T11:24:37.738Z,16.35
2016-09-17T11:25:39.978Z,16.47
2016-09-17T11:26:39.371Z,16.36
2016-09-17T11:27:40.364Z,16.36
2016-09-17T11:28:37.835Z,16.33
2016-09-17T11:29:39.525Z,16.33
2016-09-17T11:30:39.229Z,16.41
2016-09-17T11:31:39.356Z,16.36
2016-09-17T11:32:38.614Z,16.31
2016-09-17T11:33:38.992Z,16.38
2016-09-17T11:34:38.845Z,16.33
2016-09-17T11:35:38.933Z,16.36
2016-09-17T11:36:40.216Z,16.39
2016-09-17T11:37:39.222Z,16.38
2016-09-17T11:38:38.934Z,16.38
2016-09-17T11:39:37.798Z,16.42
2016-09-17T11:40:40.124Z,16.31
2016-09-17T11:41:38.194Z,16.36
2016-09-17T11:42:39.031Z,16.31
2016-09-17T11:43:38.569Z,16.35
2016-09-17T11:44:42.287Z,16.35
2016-09-17T11:45:39.199Z,16.32
2016-09-17T11:46:39.327Z,16.46
2016-09-17T11:47:40.119Z,16.41
2016-09-17T11:48:39.884Z,16.42
2016-09-17T11:49:41.522Z,16.41
2016-09-17T11:50:40.817Z,16.38
2016-09-17T11:51:39.259Z,16.32
2016-09-17T11:52:38.695Z,16.46
2016-09-17T11:53:39.758Z,16.42
2016-09-17T11:54:38.671Z,16.47
2016-09-17T11:55:39.683Z,16.43
2016-09-17T11:56:41.559Z,16.43
2016-09-17T11:57:40.129Z,16.43
2016-09-17T11:58:40.890Z,16.47
2016-09-17T11:59:39.749Z,16.51
2016-09-17T12:00:39.241Z,16.57
2016-09-17T12:01:40.161Z,16.71
2016-09-17T12:02:39.420Z,16.61
2016-09-17T12:03:40.933Z,16.6
2016-09-17T12:04:39.504Z,16.65
2016-09-17T12:05:39.037Z,16.66
2016-09-17T12:06:41.919Z,16.65
2016-09-17T12:07:39.507Z,16.68
2016-09-17T12:08:40.305Z,16.65
2016-09-17T12:09:40.775Z,16.68
2016-09-17T12:10:39.801Z,16.84
2016-09-17T12:11:39.891Z,16.78
2016-09-17T12:12:40.778Z,16.75
2016-09-17T12:13:42.701Z,16.72
2016-09-17T12:14:40.293Z,16.79
2016-09-17T12:15:40.529Z,16.71
2016-09-17T12:16:39.434Z,16.68
2016-09-17T12:17:41.821Z,16.71
2016-09-17T12:18:40.983Z,16.71
2016-09-17T12:19:39.053Z,16.72
2016-09-17T12:20:39.069Z,16.71
2016-09-17T12:21:40.250Z,16.64
2016-09-17T12:22:40.650Z,16.68
2016-09-17T12:23:40.741Z,16.72
2016-09-17T12:24:39.909Z,16.69
2016-09-17T12:25:40.879Z,16.72
2016-09-17T12:26:42.251Z,16.74
2016-09-17T12:27:40.972Z,16.74
2016-09-17T12:28:40.447Z,16.81
2016-09-17T12:29:39.097Z,16.74
2016-09-17T12:30:40.246Z,16.74
2016-09-17T12:31:39.950Z,16.87
2016-09-17T12:32:42.439Z,16.89
2016-09-17T12:33:38.816Z,16.89
2016-09-17T12:34:41.671Z,16.79
2016-09-17T12:35:41.291Z,16.83
2016-09-17T12:36:40.250Z,16.86
2016-09-17T12:37:41.949Z,16.83
2016-09-17T12:38:39.971Z,16.84
2016-09-17T12:39:40.593Z,16.86
2016-09-17T12:40:39.214Z,16.87
2016-09-17T12:41:40.671Z,16.91
2016-09-17T12:42:39.748Z,16.9
2016-09-17T12:43:40.748Z,16.81
2016-09-17T12:44:40.852Z,16.87
2016-09-17T12:45:39.307Z,16.87
2016-09-17T12:46:39.875Z,16.86
2016-09-17T12:47:40.209Z,16.91
2016-09-17T12:48:41.997Z,16.87
2016-09-17T12:49:39.086Z,16.89
2016-09-17T12:50:39.065Z,16.87
2016-09-17T12:51:40.145Z,16.91
2016-09-17T12:52:40.312Z,16.86
2016-09-17T12:53:39.728Z,16.87
2016-09-17T12:54:41.196Z,16.83
2016-09-17T12:55:39.552Z,16.83
2016-09-17T12:56:39.548Z,16.86